Terminal Aerodrome Forecast
Issued by NWS

Current Version | Previous Version | Text Only | Print | Product List | Glossary On
Versions: 1 2 3 4 5 6 7 8 9 10 11 12 13 14 15 16 17 18 19
853
FTUS43 KLSX 110522
TAFCPS
TAF
KCPS 110522Z 1106/1206 06004KT P6SM OVC035
     FM111700 02005KT P6SM SCT200
     FM112300 05004KT P6SM BKN080=

USA.gov is the U.S. government's official web portal to all federal, state and local government web resources and services.